Wyandot, Ohio
Current Conditions -  °F | °C
As of 7:53 PM on Thursday 18 Dec 2014 (Local Time) from KMNN Reporting Station
Overcast Overcast  
Wind Chill: 20°   Ceiling: 1200
Heat Index: 28°   Visibility: 7mi
Dew Point: 22°   Wind: 8mph
Humidity: 78%   Direction: 290°WNW
Pressure: 30.2"   Gusts: NA
Location:  40.8054°N, 83.1316°W
Report Text: KMNN 190053Z AUTO 29007KT 7SM OVC012 M02/M06 A3020 RMK AO2 SLP239 T10221056 TSNO
Loading
Personal Weather Stations






























Interactive Weather Map New forecast layout! Learn more

10-Day Weather Forecast

Advertisements
Track Severe Weather on mobile